createdAt,value
2022-12-03T00:00:34.437Z,34.10
2022-12-03T00:03:01.318Z,33.63
2022-12-03T00:05:27.990Z,31.67
2022-12-03T00:07:54.447Z,35.97
2022-12-03T00:10:20.963Z,32.65
2022-12-03T00:12:47.439Z,34.47
2022-12-03T00:15:13.981Z,33.78
2022-12-03T00:17:40.844Z,39.20
2022-12-03T00:20:08.723Z,37.50
2022-12-03T00:22:35.130Z,38.50
2022-12-03T00:25:01.515Z,34.80
2022-12-03T00:27:28.168Z,35.58
2022-12-03T00:29:54.611Z,36.92
2022-12-03T00:32:20.999Z,34.28
2022-12-03T00:34:47.383Z,31.77
2022-12-03T00:37:14.182Z,40.58
2022-12-03T00:39:40.746Z,35.08
2022-12-03T00:42:07.151Z,40.25
2022-12-03T00:44:33.542Z,35.33
2022-12-03T00:47:00.067Z,40.08
2022-12-03T00:49:26.564Z,34.55
2022-12-03T00:51:53.030Z,31.10
2022-12-03T00:54:19.427Z,36.85
2022-12-03T00:56:45.867Z,34.70
2022-12-03T00:59:12.337Z,38.90
2022-12-03T01:01:38.844Z,38.20
2022-12-03T01:04:05.463Z,35.88
2022-12-03T01:06:31.874Z,39.45
2022-12-03T01:08:58.336Z,34.97
2022-12-03T01:11:41.187Z,35.72
2022-12-03T01:14:13.313Z,34.80
2022-12-03T01:16:40.345Z,37.47
2022-12-03T01:19:08.187Z,35.50
2022-12-03T01:21:34.915Z,33.55
2022-12-03T01:24:01.320Z,34.03
2022-12-03T01:26:27.722Z,32.58
2022-12-03T01:28:54.364Z,38.60
2022-12-03T01:31:39.667Z,32.83
2022-12-03T01:34:06.485Z,36.63
2022-12-03T01:36:34.366Z,36.00
2022-12-03T01:39:01.863Z,42.90
2022-12-03T01:41:28.973Z,33.22
2022-12-03T01:43:56.629Z,36.55
2022-12-03T01:46:28.245Z,36.28
2022-12-03T01:48:56.438Z,37.75
2022-12-03T01:51:23.110Z,37.00
2022-12-03T01:53:50.062Z,35.13
2022-12-03T01:56:18.357Z,36.45
2022-12-03T01:58:46.631Z,35.42
2022-12-03T02:01:16.496Z,40.55
2022-12-03T02:03:46.149Z,37.25
2022-12-03T02:06:19.766Z,33.45
2022-12-03T02:11:15.827Z,31.48
2022-12-03T02:13:43.446Z,41.15
2022-12-03T02:16:10.238Z,37.55
2022-12-03T02:18:36.809Z,39.22
2022-12-03T02:21:18.645Z,42.08
2022-12-03T02:24:06.789Z,37.40
2022-12-03T02:26:33.390Z,38.88
2022-12-03T02:29:00.011Z,39.83
2022-12-03T02:31:26.854Z,42.88
2022-12-03T02:33:53.486Z,38.10
2022-12-03T02:36:21.188Z,41.38
2022-12-03T02:38:49.458Z,41.25
2022-12-03T02:41:39.444Z,42.83
2022-12-03T02:44:08.217Z,39.38
2022-12-03T02:46:35.997Z,37.70
2022-12-03T02:49:03.399Z,38.95
2022-12-03T02:51:29.892Z,33.38
2022-12-03T02:53:56.966Z,34.50
2022-12-03T02:56:27.370Z,40.10
2022-12-03T02:58:58.637Z,39.13
2022-12-03T03:01:25.606Z,42.97
2022-12-03T03:03:52.731Z,40.30
2022-12-03T03:06:20.807Z,36.20
2022-12-03T03:08:48.165Z,35.85
2022-12-03T03:11:14.730Z,37.30
2022-12-03T03:13:41.372Z,41.65
2022-12-03T03:16:08.705Z,36.83
2022-12-03T03:18:36.402Z,36.17
2022-12-03T03:21:03.926Z,35.45
2022-12-03T03:23:30.425Z,34.78
2022-12-03T03:26:02.772Z,41.72
2022-12-03T03:28:31.039Z,37.63
2022-12-03T03:31:00.593Z,40.45
2022-12-03T03:33:27.375Z,38.58
2022-12-03T03:35:54.543Z,40.97
2022-12-03T03:38:23.365Z,39.65
2022-12-03T03:40:52.138Z,39.83
2022-12-03T03:43:20.794Z,38.17
2022-12-03T03:45:47.573Z,41.53
2022-12-03T03:48:14.577Z,44.30
2022-12-03T03:50:42.219Z,38.38
2022-12-03T03:53:09.657Z,38.50
2022-12-03T03:55:36.095Z,39.83
2022-12-03T03:58:02.593Z,42.60
2022-12-03T04:00:30.065Z,39.42
2022-12-03T04:02:56.449Z,43.10
2022-12-03T04:05:24.676Z,42.08
2022-12-03T04:07:51.635Z,45.70
2022-12-03T04:10:37.027Z,44.15
2022-12-03T04:13:04.537Z,43.40
2022-12-03T04:15:31.216Z,40.33
2022-12-03T04:18:17.678Z,47.72
2022-12-03T04:20:44.173Z,47.03
2022-12-03T04:23:10.841Z,46.70
2022-12-03T04:26:16.007Z,45.83
2022-12-03T04:28:51.451Z,45.22
2022-12-03T04:31:36.821Z,47.70
2022-12-03T04:34:21.512Z,45.35
2022-12-03T04:36:47.918Z,44.28
2022-12-03T04:39:14.320Z,40.95
2022-12-03T04:41:40.724Z,47.15
2022-12-03T04:44:26.753Z,42.67
2022-12-03T04:46:53.165Z,42.55
2022-12-03T04:49:19.584Z,50.97
2022-12-03T04:51:46.138Z,45.75
2022-12-03T04:54:12.640Z,45.78
2022-12-03T04:56:39.112Z,42.42
2022-12-03T04:59:05.542Z,43.63
2022-12-03T05:01:31.998Z,42.88
2022-12-03T05:03:58.387Z,43.47
2022-12-03T05:06:24.821Z,45.85
2022-12-03T05:08:51.502Z,43.35
2022-12-03T05:11:17.983Z,45.90
2022-12-03T05:13:44.393Z,44.70
2022-12-03T05:16:10.865Z,46.15
2022-12-03T05:18:37.701Z,44.25
2022-12-03T05:21:04.722Z,43.72
2022-12-03T05:23:31.225Z,47.72
2022-12-03T05:25:58.041Z,44.00
2022-12-03T05:28:24.484Z,45.67
2022-12-03T05:30:51.864Z,46.50
2022-12-03T05:33:18.633Z,46.40
2022-12-03T05:35:45.070Z,43.50
2022-12-03T05:38:11.474Z,46.55
2022-12-03T05:40:38.186Z,46.00
2022-12-03T05:43:04.736Z,47.03
2022-12-03T05:45:35.297Z,50.55
2022-12-03T05:48:07.894Z,45.92
2022-12-03T05:50:37.376Z,49.20
2022-12-03T05:53:04.807Z,45.80
2022-12-03T05:55:31.451Z,48.20
2022-12-03T05:57:58.006Z,47.33
2022-12-03T06:00:30.850Z,52.97
2022-12-03T06:02:57.562Z,50.38
2022-12-03T06:05:25.416Z,49.08
2022-12-03T06:07:52.942Z,55.55
2022-12-03T06:10:24.257Z,53.00
2022-12-03T06:12:51.499Z,53.78
2022-12-03T06:15:18.627Z,52.08
2022-12-03T06:17:45.145Z,53.28
2022-12-03T06:20:17.547Z,49.63
2022-12-03T06:22:44.056Z,52.55
2022-12-03T06:25:11.068Z,51.65
2022-12-03T06:27:37.879Z,44.55
2022-12-03T06:30:05.658Z,48.03
2022-12-03T06:32:32.110Z,45.60
2022-12-03T06:34:58.521Z,50.03
2022-12-03T06:37:24.972Z,45.38
2022-12-03T06:39:51.386Z,50.30
2022-12-03T06:42:17.781Z,44.13
2022-12-03T06:44:44.974Z,46.40
2022-12-03T06:47:11.362Z,49.45
2022-12-03T06:49:37.756Z,45.08
2022-12-03T06:52:04.411Z,52.65
2022-12-03T06:54:30.939Z,48.38
2022-12-03T06:56:57.363Z,52.30
2022-12-03T06:59:23.765Z,44.83
2022-12-03T07:01:50.299Z,49.10
2022-12-03T07:04:16.751Z,50.25
2022-12-03T07:06:43.768Z,49.22
2022-12-03T07:09:10.229Z,52.28
2022-12-03T07:11:42.355Z,45.60
2022-12-03T07:14:12.166Z,46.85
2022-12-03T07:16:39.186Z,54.08
2022-12-03T07:19:06.865Z,52.38
2022-12-03T07:21:33.875Z,45.50
2022-12-03T07:24:00.620Z,51.60
2022-12-03T07:26:27.576Z,51.50
2022-12-03T07:28:54.071Z,48.63
2022-12-03T07:31:20.607Z,50.38
2022-12-03T07:33:47.296Z,50.38
2022-12-03T07:36:14.021Z,47.72
2022-12-03T07:38:40.998Z,50.60
2022-12-03T07:41:07.484Z,52.25
2022-12-03T07:43:34.046Z,48.55
2022-12-03T07:46:00.521Z,52.10
2022-12-03T07:48:42.020Z,52.38
2022-12-03T07:51:10.508Z,51.70
2022-12-03T07:53:40.945Z,55.90
2022-12-03T07:56:07.824Z,56.33
2022-12-03T07:58:34.325Z,57.47
2022-12-03T08:01:00.852Z,59.75
2022-12-03T08:03:27.347Z,51.45
2022-12-03T08:05:53.780Z,59.40
2022-12-03T08:08:22.682Z,56.10
2022-12-03T08:10:49.545Z,52.35
2022-12-03T08:13:17.777Z,60.28
2022-12-03T08:15:44.625Z,56.30
2022-12-03T08:18:17.919Z,54.35
2022-12-03T08:20:45.936Z,55.92
2022-12-03T08:23:19.868Z,55.72
2022-12-03T08:25:46.783Z,57.40
2022-12-03T08:28:15.027Z,53.03
2022-12-03T08:30:43.643Z,54.17
2022-12-03T08:33:33.613Z,54.50
2022-12-03T08:36:05.220Z,52.85
2022-12-03T08:38:31.724Z,58.28
2022-12-03T08:40:58.165Z,55.53
2022-12-03T08:43:26.743Z,55.05
2022-12-03T08:45:55.353Z,60.55
2022-12-03T08:48:32.546Z,54.92
2022-12-03T08:51:11.698Z,60.55
2022-12-03T08:53:43.083Z,60.22
2022-12-03T08:56:24.083Z,59.92
2022-12-03T08:58:57.715Z,59.30
2022-12-03T09:03:53.135Z,61.70
2022-12-03T09:06:19.555Z,61.10
2022-12-03T09:08:46.219Z,64.60
2022-12-03T09:11:13.000Z,52.55
2022-12-03T09:13:39.533Z,57.67
2022-12-03T09:16:06.443Z,59.25
2022-12-03T09:18:33.441Z,62.08
2022-12-03T09:21:00.627Z,60.08
2022-12-03T09:23:27.125Z,65.15
2022-12-03T09:25:53.613Z,60.20
2022-12-03T09:28:20.022Z,60.60
2022-12-03T09:30:46.450Z,60.40
2022-12-03T09:33:14.198Z,63.55
2022-12-03T09:35:40.644Z,63.97
2022-12-03T09:38:07.048Z,58.63
2022-12-03T09:40:34.503Z,63.85
2022-12-03T09:43:01.025Z,64.15
2022-12-03T09:45:27.767Z,58.50
2022-12-03T09:47:55.182Z,58.38
2022-12-03T09:50:25.194Z,62.42
2022-12-03T09:52:54.974Z,60.38
2022-12-03T09:55:24.158Z,69.40
2022-12-03T09:57:52.864Z,70.70
2022-12-03T10:00:28.080Z,66.47
2022-12-03T10:02:58.347Z,63.53
2022-12-03T10:05:25.244Z,78.68
2022-12-03T10:07:53.025Z,64.97
2022-12-03T10:10:22.228Z,67.50
2022-12-03T10:12:50.212Z,74.63
2022-12-03T10:15:18.792Z,71.53
2022-12-03T10:17:50.278Z,73.00
2022-12-03T10:20:18.204Z,64.65
2022-12-03T10:22:45.207Z,68.65
2022-12-03T10:25:14.864Z,65.63
2022-12-03T10:27:42.113Z,81.93
2022-12-03T10:30:18.023Z,72.07
2022-12-03T10:32:50.179Z,76.45
2022-12-03T10:35:18.605Z,68.72
2022-12-03T10:38:06.759Z,80.35
2022-12-03T10:40:38.988Z,75.93
2022-12-03T10:43:25.346Z,78.18
2022-12-03T10:46:11.456Z,79.03
2022-12-03T10:48:38.508Z,74.63
2022-12-03T10:51:21.769Z,74.90
2022-12-03T10:53:50.341Z,75.28
2022-12-03T10:56:25.275Z,74.15
2022-12-03T10:58:52.432Z,75.03
2022-12-03T11:01:25.373Z,75.63
2022-12-03T11:03:52.937Z,76.10
2022-12-03T11:06:21.676Z,80.55
2022-12-03T11:08:56.789Z,70.10
2022-12-03T11:11:27.102Z,68.20
2022-12-03T11:13:54.559Z,68.80
2022-12-03T11:16:39.424Z,74.63
2022-12-03T11:19:18.181Z,71.00
2022-12-03T11:22:03.406Z,66.22
2022-12-03T11:24:30.691Z,60.80
2022-12-03T11:26:57.257Z,63.10
2022-12-03T11:29:46.626Z,62.15
2022-12-03T11:32:37.629Z,68.60
2022-12-03T11:35:11.009Z,65.00
2022-12-03T11:37:37.562Z,61.78
2022-12-03T11:40:23.890Z,55.85
2022-12-03T11:42:50.472Z,61.65
2022-12-03T11:45:33.377Z,59.95
2022-12-03T11:47:59.788Z,56.90
2022-12-03T11:50:40.152Z,68.35
2022-12-03T11:53:19.104Z,71.28
2022-12-03T11:55:51.822Z,87.32
2022-12-03T11:58:21.779Z,65.10
2022-12-03T12:00:53.354Z,54.10
2022-12-03T12:03:25.986Z,56.45
2022-12-03T12:06:11.078Z,61.55
2022-12-03T12:08:49.508Z,51.63
2022-12-03T12:11:43.838Z,60.83
2022-12-03T12:14:12.705Z,52.78
2022-12-03T12:16:52.685Z,45.33
2022-12-03T12:19:37.505Z,51.05
2022-12-03T12:22:12.992Z,53.03
2022-12-03T12:24:48.275Z,44.65
2022-12-03T12:27:37.698Z,46.25
2022-12-03T12:30:19.782Z,48.45
2022-12-03T12:33:23.013Z,47.05
2022-12-03T12:35:49.707Z,42.55
2022-12-03T12:38:21.089Z,42.70
2022-12-03T12:40:50.003Z,45.78
2022-12-03T12:43:31.797Z,40.72
2022-12-03T12:46:39.019Z,44.17
2022-12-03T12:48:59.855Z,39.10
2022-12-03T12:51:26.584Z,43.72
2022-12-03T12:53:53.789Z,42.67
2022-12-03T12:56:25.548Z,41.85
2022-12-03T12:58:53.153Z,55.25
2022-12-03T13:01:28.845Z,48.20
2022-12-03T13:03:56.559Z,48.50
2022-12-03T13:06:28.213Z,57.42
2022-12-03T13:08:55.083Z,41.80
2022-12-03T13:11:39.515Z,42.28
2022-12-03T13:14:11.162Z,56.75
2022-12-03T13:16:39.094Z,89.28
2022-12-03T13:19:19.683Z,66.47
2022-12-03T13:21:46.431Z,43.25
2022-12-03T13:24:36.774Z,58.67
2022-12-03T13:27:19.524Z,46.35
2022-12-03T13:29:53.426Z,40.80
2022-12-03T13:32:27.540Z,42.45
2022-12-03T13:34:58.995Z,40.58
2022-12-03T13:37:28.166Z,42.17
2022-12-03T13:39:57.432Z,47.28
2022-12-03T13:42:39.208Z,40.53
2022-12-03T13:45:15.579Z,43.28
2022-12-03T13:47:58.612Z,43.47
2022-12-03T13:50:41.718Z,43.23
2022-12-03T13:53:19.238Z,46.30
2022-12-03T13:55:48.940Z,43.58
2022-12-03T13:58:15.534Z,44.63
2022-12-03T14:00:42.019Z,52.47
2022-12-03T14:03:08.921Z,46.30
2022-12-03T14:05:35.404Z,51.20
2022-12-03T14:08:02.313Z,92.55
2022-12-03T14:10:29.802Z,50.25
2022-12-03T14:12:57.006Z,55.45
2022-12-03T14:15:25.050Z,49.92
2022-12-03T14:17:51.500Z,50.47
2022-12-03T14:20:18.838Z,45.45
2022-12-03T14:22:45.546Z,48.35
2022-12-03T14:25:12.078Z,51.45
2022-12-03T14:27:38.464Z,51.63
2022-12-03T14:30:05.614Z,52.17
2022-12-03T14:32:32.010Z,57.35
2022-12-03T14:34:58.476Z,55.38
2022-12-03T14:37:24.901Z,55.42
2022-12-03T14:39:51.421Z,52.83
2022-12-03T14:42:18.394Z,59.30
2022-12-03T14:44:49.755Z,54.72
2022-12-03T14:47:18.672Z,56.72
2022-12-03T14:49:45.865Z,62.90
2022-12-03T14:52:12.946Z,57.83
2022-12-03T14:54:42.136Z,49.75
2022-12-03T14:57:11.309Z,53.33
2022-12-03T14:59:37.968Z,51.40
2022-12-03T15:02:04.679Z,51.95
2022-12-03T15:04:31.166Z,47.58
2022-12-03T15:06:57.594Z,51.38
2022-12-03T15:09:24.037Z,47.75
2022-12-03T15:11:50.481Z,53.37
2022-12-03T15:14:16.916Z,51.55
2022-12-03T15:16:43.447Z,54.17
2022-12-03T15:19:09.951Z,57.95
2022-12-03T15:21:36.464Z,54.17
2022-12-03T15:24:03.026Z,52.80
2022-12-03T15:26:29.815Z,53.70
2022-12-03T15:28:56.271Z,63.53
2022-12-03T15:31:22.825Z,53.65
2022-12-03T15:33:49.297Z,90.53
2022-12-03T15:36:15.818Z,57.75
2022-12-03T15:38:42.472Z,58.28
2022-12-03T15:41:21.454Z,56.55
2022-12-03T15:43:48.703Z,54.95
2022-12-03T15:46:15.303Z,50.80
2022-12-03T15:48:42.005Z,50.47
2022-12-03T15:51:08.491Z,52.63
2022-12-03T15:53:35.051Z,52.38
2022-12-03T15:56:01.590Z,56.85
2022-12-03T15:58:28.571Z,49.88
2022-12-03T16:00:54.974Z,49.55
2022-12-03T16:03:21.460Z,49.92
2022-12-03T16:05:47.982Z,48.13
2022-12-03T16:08:14.518Z,52.95
2022-12-03T16:10:41.048Z,49.25
2022-12-03T16:13:07.571Z,49.08
2022-12-03T16:15:35.171Z,51.83
2022-12-03T16:18:01.628Z,52.30
2022-12-03T16:20:28.108Z,50.67
2022-12-03T16:22:55.111Z,44.95
2022-12-03T16:25:21.712Z,51.75
2022-12-03T16:27:48.224Z,52.95
2022-12-03T16:30:15.000Z,50.00
2022-12-03T16:32:41.774Z,53.03
2022-12-03T16:35:08.944Z,54.47
2022-12-03T16:37:35.481Z,53.65
2022-12-03T16:40:02.180Z,49.70
2022-12-03T16:42:28.789Z,51.50
2022-12-03T16:45:18.083Z,53.90
2022-12-03T16:47:44.482Z,57.13
2022-12-03T16:50:16.477Z,53.75
2022-12-03T16:52:47.503Z,51.38
2022-12-03T16:55:13.980Z,53.13
2022-12-03T16:57:40.382Z,60.20
2022-12-03T17:00:07.972Z,61.40
2022-12-03T17:02:34.752Z,55.33
2022-12-03T17:05:01.251Z,67.40
2022-12-03T17:07:28.201Z,57.55
2022-12-03T17:09:55.037Z,61.95
2022-12-03T17:12:21.630Z,61.15
2022-12-03T17:14:48.037Z,59.03
2022-12-03T17:17:14.423Z,63.58
2022-12-03T17:19:40.857Z,62.13
2022-12-03T17:22:07.282Z,82.60
2022-12-03T17:24:33.707Z,63.42
2022-12-03T17:27:00.159Z,68.03
2022-12-03T17:29:26.583Z,61.13
2022-12-03T17:31:53.162Z,64.20
2022-12-03T17:34:19.592Z,62.72
2022-12-03T17:36:46.141Z,56.70
2022-12-03T17:39:12.750Z,64.30
2022-12-03T17:41:39.461Z,62.63
2022-12-03T17:44:10.101Z,60.38
2022-12-03T17:46:38.113Z,68.38
2022-12-03T17:49:04.782Z,59.13
2022-12-03T17:51:31.199Z,67.40
2022-12-03T17:53:58.001Z,60.20
2022-12-03T17:56:24.450Z,72.85
2022-12-03T17:58:51.050Z,70.32
2022-12-03T18:01:17.551Z,68.07
2022-12-03T18:03:44.203Z,70.50
2022-12-03T18:06:10.667Z,71.55
2022-12-03T18:08:37.049Z,78.80
2022-12-03T18:11:03.532Z,72.35
2022-12-03T18:13:30.029Z,73.15
2022-12-03T18:15:56.631Z,73.47
2022-12-03T18:18:23.244Z,78.68
2022-12-03T18:20:49.779Z,67.82
2022-12-03T18:23:16.186Z,70.35
2022-12-03T18:25:43.709Z,74.88
2022-12-03T18:28:10.107Z,72.53
2022-12-03T18:30:36.586Z,71.93
2022-12-03T18:33:03.184Z,74.75
2022-12-03T18:35:29.679Z,77.15
2022-12-03T18:37:56.357Z,74.60
2022-12-03T18:40:24.291Z,74.13
2022-12-03T18:42:50.876Z,81.32
2022-12-03T18:45:17.514Z,67.53
2022-12-03T18:47:44.544Z,72.72
2022-12-03T18:50:12.523Z,70.28
2022-12-03T18:52:39.615Z,77.05
2022-12-03T18:55:07.411Z,71.68
2022-12-03T18:57:33.856Z,65.85
2022-12-03T19:00:00.288Z,71.28
2022-12-03T19:03:01.323Z,70.18
2022-12-03T19:05:13.136Z,69.07
2022-12-03T19:07:39.615Z,78.47
2022-12-03T19:10:06.780Z,75.88
2022-12-03T19:12:33.492Z,74.25
2022-12-03T19:14:59.949Z,80.32
2022-12-03T19:17:27.333Z,66.30
2022-12-03T19:19:54.627Z,68.13
2022-12-03T19:22:21.420Z,66.75
2022-12-03T19:24:47.928Z,63.45
2022-12-03T19:27:15.065Z,69.63
2022-12-03T19:29:41.723Z,63.38
2022-12-03T19:32:08.921Z,64.90
2022-12-03T19:34:35.487Z,64.95
2022-12-03T19:37:01.867Z,63.17
2022-12-03T19:39:28.397Z,60.72
2022-12-03T19:41:54.801Z,64.55
2022-12-03T19:44:21.340Z,64.93
2022-12-03T19:46:49.850Z,65.78
2022-12-03T19:49:21.087Z,71.00
2022-12-03T19:51:48.219Z,65.25
2022-12-03T19:54:14.751Z,63.17
2022-12-03T19:56:41.347Z,73.22
2022-12-03T19:59:07.986Z,67.13
2022-12-03T20:01:36.100Z,67.07
2022-12-03T20:04:03.588Z,60.90
2022-12-03T20:06:33.118Z,64.75
2022-12-03T20:09:02.528Z,65.43
2022-12-03T20:11:31.335Z,61.20
2022-12-03T20:14:04.623Z,59.92
2022-12-03T20:16:31.163Z,61.70
2022-12-03T20:19:00.238Z,61.78
2022-12-03T20:21:28.741Z,62.92
2022-12-03T20:23:55.149Z,60.45
2022-12-03T20:26:21.965Z,61.47
2022-12-03T20:28:48.500Z,58.88
2022-12-03T20:31:18.041Z,59.13
2022-12-03T20:33:47.289Z,64.07
2022-12-03T20:36:15.067Z,61.35
2022-12-03T20:38:41.526Z,57.72
2022-12-03T20:41:14.556Z,53.47
2022-12-03T20:43:41.321Z,49.78
2022-12-03T20:46:16.560Z,55.72
2022-12-03T20:48:44.822Z,50.65
2022-12-03T20:51:15.406Z,54.88
2022-12-03T20:53:42.378Z,55.05
2022-12-03T20:56:09.446Z,51.10
2022-12-03T20:58:36.852Z,57.97
2022-12-03T21:01:26.151Z,53.75
2022-12-03T21:03:54.377Z,57.10
2022-12-03T21:06:22.549Z,56.72
2022-12-03T21:08:49.587Z,55.92
2022-12-03T21:11:20.979Z,50.42
2022-12-03T21:13:47.958Z,49.60
2022-12-03T21:16:16.920Z,48.78
2022-12-03T21:18:44.140Z,51.40
2022-12-03T21:21:11.945Z,52.70
2022-12-03T21:23:38.361Z,53.25
2022-12-03T21:26:14.354Z,51.75
2022-12-03T21:28:43.368Z,52.08
2022-12-03T21:31:13.335Z,46.08
2022-12-03T21:33:40.408Z,49.88
2022-12-03T21:36:07.905Z,40.72
2022-12-03T21:38:35.592Z,44.35
2022-12-03T21:41:02.922Z,42.83
2022-12-03T21:43:29.670Z,48.15
2022-12-03T21:45:56.203Z,44.85
2022-12-03T21:48:22.827Z,46.72
2022-12-03T21:50:59.843Z,47.42
2022-12-03T21:53:26.409Z,37.63
2022-12-03T21:55:52.827Z,43.75
2022-12-03T21:58:19.233Z,42.63
2022-12-03T22:00:45.693Z,42.22
2022-12-03T22:03:12.229Z,39.33
2022-12-03T22:05:39.120Z,42.63
2022-12-03T22:08:05.874Z,40.30
2022-12-03T22:10:32.442Z,40.00
2022-12-03T22:12:58.826Z,34.78
2022-12-03T22:15:25.361Z,42.38
2022-12-03T22:17:51.916Z,38.90
2022-12-03T22:20:18.655Z,39.47
2022-12-03T22:22:45.843Z,46.72
2022-12-03T22:25:12.405Z,37.80
2022-12-03T22:27:38.871Z,34.75
2022-12-03T22:30:05.914Z,40.22
2022-12-03T22:32:32.328Z,36.60
2022-12-03T22:34:58.710Z,31.10
2022-12-03T22:37:25.123Z,34.88
2022-12-03T22:39:51.530Z,38.53
2022-12-03T22:42:17.927Z,34.03
2022-12-03T22:44:44.363Z,40.85
2022-12-03T22:47:10.755Z,34.00
2022-12-03T22:49:37.134Z,39.20
2022-12-03T22:52:03.820Z,38.80
2022-12-03T22:54:30.267Z,40.13
2022-12-03T22:56:57.004Z,37.08
2022-12-03T22:59:23.404Z,38.88
2022-12-03T23:01:50.178Z,37.45
2022-12-03T23:04:16.712Z,42.10
2022-12-03T23:06:43.650Z,39.35
2022-12-03T23:09:10.749Z,39.45
2022-12-03T23:11:37.276Z,38.25
2022-12-03T23:14:03.867Z,35.08
2022-12-03T23:16:33.113Z,35.65
2022-12-03T23:19:01.307Z,41.00
2022-12-03T23:21:30.935Z,42.67
2022-12-03T23:23:59.066Z,40.28
2022-12-03T23:26:25.817Z,40.03
2022-12-03T23:28:52.486Z,43.50
2022-12-03T23:31:30.881Z,38.40
2022-12-03T23:33:58.249Z,40.60
2022-12-03T23:36:26.366Z,40.85
2022-12-03T23:38:52.789Z,40.83
2022-12-03T23:41:21.500Z,39.15
2022-12-03T23:43:48.542Z,38.83
2022-12-03T23:46:18.419Z,42.75
2022-12-03T23:48:45.609Z,39.80
2022-12-03T23:51:17.772Z,41.97
2022-12-03T23:53:44.833Z,40.28
2022-12-03T23:56:14.737Z,42.42
2022-12-03T23:58:41.524Z,42.15
